sensor_id;sensor_type;location;lat;lon;timestamp;temperature;humidity
40538;DHT22;27925;41.874;12.526;2022-12-07T00:01:14;13.20;86.60
40538;DHT22;27925;41.874;12.526;2022-12-07T00:03:42;13.20;86.80
40538;DHT22;27925;41.874;12.526;2022-12-07T00:06:10;13.10;86.70
40538;DHT22;27925;41.874;12.526;2022-12-07T00:08:36;13.10;86.90
40538;DHT22;27925;41.874;12.526;2022-12-07T00:11:22;13.10;87.00
40538;DHT22;27925;41.874;12.526;2022-12-07T00:13:57;13.00;87.10
40538;DHT22;27925;41.874;12.526;2022-12-07T00:16:24;13.00;86.60
40538;DHT22;27925;41.874;12.526;2022-12-07T00:18:50;12.90;87.40
40538;DHT22;27925;41.874;12.526;2022-12-07T00:21:18;12.80;87.30
40538;DHT22;27925;41.874;12.526;2022-12-07T00:23:46;12.80;87.80
40538;DHT22;27925;41.874;12.526;2022-12-07T00:26:23;12.80;87.90
40538;DHT22;27925;41.874;12.526;2022-12-07T00:28:55;12.80;88.20
40538;DHT22;27925;41.874;12.526;2022-12-07T00:31:23;12.80;87.60
40538;DHT22;27925;41.874;12.526;2022-12-07T00:33:50;12.70;88.20
40538;DHT22;27925;41.874;12.526;2022-12-07T00:36:18;12.70;88.20
40538;DHT22;27925;41.874;12.526;2022-12-07T00:38:44;12.70;88.20
40538;DHT22;27925;41.874;12.526;2022-12-07T00:43:38;12.80;88.30
40538;DHT22;27925;41.874;12.526;2022-12-07T00:46:04;12.70;88.20
40538;DHT22;27925;41.874;12.526;2022-12-07T00:48:29;12.70;88.40
40538;DHT22;27925;41.874;12.526;2022-12-07T00:50:55;12.70;88.60
40538;DHT22;27925;41.874;12.526;2022-12-07T00:53:21;12.60;88.40
40538;DHT22;27925;41.874;12.526;2022-12-07T00:55:47;12.70;88.60
40538;DHT22;27925;41.874;12.526;2022-12-07T00:58:13;12.60;88.50
40538;DHT22;27925;41.874;12.526;2022-12-07T01:00:40;12.60;88.70
40538;DHT22;27925;41.874;12.526;2022-12-07T01:03:08;12.60;88.80
40538;DHT22;27925;41.874;12.526;2022-12-07T01:05:34;12.60;88.90
40538;DHT22;27925;41.874;12.526;2022-12-07T01:08:00;12.60;88.70
40538;DHT22;27925;41.874;12.526;2022-12-07T01:10:26;12.60;88.60
40538;DHT22;27925;41.874;12.526;2022-12-07T01:12:52;12.60;88.30
40538;DHT22;27925;41.874;12.526;2022-12-07T01:15:18;12.50;88.40
40538;DHT22;27925;41.874;12.526;2022-12-07T01:17:44;12.50;88.30
40538;DHT22;27925;41.874;12.526;2022-12-07T01:20:10;12.40;88.20
40538;DHT22;27925;41.874;12.526;2022-12-07T01:22:40;12.50;88.10
40538;DHT22;27925;41.874;12.526;2022-12-07T01:25:07;12.50;88.30
40538;DHT22;27925;41.874;12.526;2022-12-07T01:27:34;12.50;87.90
40538;DHT22;27925;41.874;12.526;2022-12-07T01:30:00;12.40;87.50
40538;DHT22;27925;41.874;12.526;2022-12-07T01:32:27;12.40;87.70
40538;DHT22;27925;41.874;12.526;2022-12-07T01:34:52;12.40;87.50
40538;DHT22;27925;41.874;12.526;2022-12-07T01:37:18;12.40;87.50
40538;DHT22;27925;41.874;12.526;2022-12-07T01:39:44;12.40;87.40
40538;DHT22;27925;41.874;12.526;2022-12-07T01:42:13;12.40;87.40
40538;DHT22;27925;41.874;12.526;2022-12-07T01:47:45;12.40;86.70
40538;DHT22;27925;41.874;12.526;2022-12-07T01:50:13;12.40;87.40
40538;DHT22;27925;41.874;12.526;2022-12-07T01:52:40;12.40;87.30
40538;DHT22;27925;41.874;12.526;2022-12-07T01:55:12;12.40;87.30
40538;DHT22;27925;41.874;12.526;2022-12-07T01:57:42;12.40;87.20
40538;DHT22;27925;41.874;12.526;2022-12-07T02:00:09;12.40;87.40
40538;DHT22;27925;41.874;12.526;2022-12-07T02:02:48;12.40;86.90
40538;DHT22;27925;41.874;12.526;2022-12-07T02:05:17;12.40;86.30
40538;DHT22;27925;41.874;12.526;2022-12-07T02:07:44;12.40;87.10
40538;DHT22;27925;41.874;12.526;2022-12-07T02:10:17;12.50;87.00
40538;DHT22;27925;41.874;12.526;2022-12-07T02:12:45;12.40;86.50
40538;DHT22;27925;41.874;12.526;2022-12-07T02:15:12;12.40;86.70
40538;DHT22;27925;41.874;12.526;2022-12-07T02:17:48;12.40;86.40
40538;DHT22;27925;41.874;12.526;2022-12-07T02:20:38;12.30;86.60
40538;DHT22;27925;41.874;12.526;2022-12-07T02:23:10;12.30;86.70
40538;DHT22;27925;41.874;12.526;2022-12-07T02:28:23;12.20;86.60
40538;DHT22;27925;41.874;12.526;2022-12-07T02:30:55;12.20;86.60
40538;DHT22;27925;41.874;12.526;2022-12-07T02:33:33;12.20;86.60
40538;DHT22;27925;41.874;12.526;2022-12-07T02:36:11;12.30;86.70
40538;DHT22;27925;41.874;12.526;2022-12-07T02:38:45;12.30;85.90
40538;DHT22;27925;41.874;12.526;2022-12-07T02:41:20;12.30;86.70
40538;DHT22;27925;41.874;12.526;2022-12-07T02:43:56;12.30;86.50
40538;DHT22;27925;41.874;12.526;2022-12-07T02:46:27;12.30;86.50
40538;DHT22;27925;41.874;12.526;2022-12-07T02:48:55;12.30;86.40
40538;DHT22;27925;41.874;12.526;2022-12-07T02:51:22;12.30;86.40
40538;DHT22;27925;41.874;12.526;2022-12-07T02:53:47;12.30;86.20
40538;DHT22;27925;41.874;12.526;2022-12-07T03:07:15;12.10;86.10
40538;DHT22;27925;41.874;12.526;2022-12-07T03:15:39;12.10;86.00
40538;DHT22;27925;41.874;12.526;2022-12-07T03:18:09;12.10;85.90
40538;DHT22;27925;41.874;12.526;2022-12-07T03:20:37;12.10;86.40
40538;DHT22;27925;41.874;12.526;2022-12-07T03:23:10;12.10;86.50
40538;DHT22;27925;41.874;12.526;2022-12-07T03:25:48;12.00;86.50
40538;DHT22;27925;41.874;12.526;2022-12-07T03:28:18;12.00;86.60
40538;DHT22;27925;41.874;12.526;2022-12-07T03:30:49;12.00;86.90
40538;DHT22;27925;41.874;12.526;2022-12-07T03:33:24;11.90;86.90
40538;DHT22;27925;41.874;12.526;2022-12-07T03:36:18;12.00;87.20
40538;DHT22;27925;41.874;12.526;2022-12-07T03:38:51;11.90;86.60
40538;DHT22;27925;41.874;12.526;2022-12-07T03:41:23;11.90;87.30
40538;DHT22;27925;41.874;12.526;2022-12-07T03:43:50;11.90;87.30
40538;DHT22;27925;41.874;12.526;2022-12-07T03:46:39;11.90;87.30
40538;DHT22;27925;41.874;12.526;2022-12-07T03:49:39;11.90;87.60
40538;DHT22;27925;41.874;12.526;2022-12-07T03:55:14;11.90;87.10
40538;DHT22;27925;41.874;12.526;2022-12-07T03:57:43;11.90;87.50
40538;DHT22;27925;41.874;12.526;2022-12-07T04:00:11;11.80;87.80
40538;DHT22;27925;41.874;12.526;2022-12-07T04:02:37;11.80;87.80
40538;DHT22;27925;41.874;12.526;2022-12-07T04:05:03;11.90;87.90
40538;DHT22;27925;41.874;12.526;2022-12-07T04:07:29;11.90;88.00
40538;DHT22;27925;41.874;12.526;2022-12-07T04:09:55;11.90;87.80
40538;DHT22;27925;41.874;12.526;2022-12-07T04:12:21;12.00;87.90
40538;DHT22;27925;41.874;12.526;2022-12-07T04:14:47;12.00;88.00
40538;DHT22;27925;41.874;12.526;2022-12-07T04:17:13;12.00;87.80
40538;DHT22;27925;41.874;12.526;2022-12-07T04:19:38;11.90;87.70
40538;DHT22;27925;41.874;12.526;2022-12-07T04:22:05;12.00;87.80
40538;DHT22;27925;41.874;12.526;2022-12-07T04:24:32;11.90;87.70
40538;DHT22;27925;41.874;12.526;2022-12-07T04:26:57;12.00;88.00
40538;DHT22;27925;41.874;12.526;2022-12-07T04:29:23;12.00;87.90
40538;DHT22;27925;41.874;12.526;2022-12-07T04:31:49;12.00;87.90
40538;DHT22;27925;41.874;12.526;2022-12-07T04:34:17;12.10;88.00
40538;DHT22;27925;41.874;12.526;2022-12-07T04:36:43;12.10;87.60
40538;DHT22;27925;41.874;12.526;2022-12-07T04:39:27;12.10;87.90
40538;DHT22;27925;41.874;12.526;2022-12-07T04:41:53;12.10;87.00
40538;DHT22;27925;41.874;12.526;2022-12-07T04:44:20;12.10;87.30
40538;DHT22;27925;41.874;12.526;2022-12-07T04:46:46;12.10;87.60
40538;DHT22;27925;41.874;12.526;2022-12-07T04:49:12;12.10;87.20
40538;DHT22;27925;41.874;12.526;2022-12-07T04:51:38;12.10;87.00
40538;DHT22;27925;41.874;12.526;2022-12-07T04:54:04;12.00;86.80
40538;DHT22;27925;41.874;12.526;2022-12-07T04:56:30;12.00;86.80
40538;DHT22;27925;41.874;12.526;2022-12-07T04:58:56;12.00;86.40
40538;DHT22;27925;41.874;12.526;2022-12-07T05:01:23;11.90;86.20
40538;DHT22;27925;41.874;12.526;2022-12-07T05:03:49;11.90;86.30
40538;DHT22;27925;41.874;12.526;2022-12-07T05:06:15;11.90;86.10
40538;DHT22;27925;41.874;12.526;2022-12-07T05:08:41;12.00;86.10
40538;DHT22;27925;41.874;12.526;2022-12-07T05:11:07;11.90;86.30
40538;DHT22;27925;41.874;12.526;2022-12-07T05:13:34;12.00;86.30
40538;DHT22;27925;41.874;12.526;2022-12-07T05:16:00;12.00;86.30
40538;DHT22;27925;41.874;12.526;2022-12-07T05:18:26;12.00;86.20
40538;DHT22;27925;41.874;12.526;2022-12-07T05:20:52;12.00;86.20
40538;DHT22;27925;41.874;12.526;2022-12-07T05:23:18;11.90;86.00
40538;DHT22;27925;41.874;12.526;2022-12-07T05:25:46;11.90;86.00
40538;DHT22;27925;41.874;12.526;2022-12-07T05:28:12;11.90;86.00
40538;DHT22;27925;41.874;12.526;2022-12-07T05:30:37;11.90;86.00
40538;DHT22;27925;41.874;12.526;2022-12-07T05:33:03;11.90;85.80
40538;DHT22;27925;41.874;12.526;2022-12-07T05:35:29;11.90;85.90
40538;DHT22;27925;41.874;12.526;2022-12-07T05:37:55;11.90;85.70
40538;DHT22;27925;41.874;12.526;2022-12-07T05:40:22;11.90;85.90
40538;DHT22;27925;41.874;12.526;2022-12-07T05:42:48;11.90;85.80
40538;DHT22;27925;41.874;12.526;2022-12-07T05:45:14;11.80;85.60
40538;DHT22;27925;41.874;12.526;2022-12-07T05:47:39;11.80;85.40
40538;DHT22;27925;41.874;12.526;2022-12-07T05:50:06;11.70;85.60
40538;DHT22;27925;41.874;12.526;2022-12-07T05:52:31;11.80;85.70
40538;DHT22;27925;41.874;12.526;2022-12-07T05:54:57;11.70;85.60
40538;DHT22;27925;41.874;12.526;2022-12-07T05:57:23;11.70;85.70
40538;DHT22;27925;41.874;12.526;2022-12-07T05:59:49;11.70;85.80
40538;DHT22;27925;41.874;12.526;2022-12-07T06:02:16;11.60;85.60
40538;DHT22;27925;41.874;12.526;2022-12-07T06:04:44;11.60;86.10
40538;DHT22;27925;41.874;12.526;2022-12-07T06:07:11;11.60;86.20
40538;DHT22;27925;41.874;12.526;2022-12-07T06:09:38;11.60;86.40
40538;DHT22;27925;41.874;12.526;2022-12-07T06:12:04;11.60;86.40
40538;DHT22;27925;41.874;12.526;2022-12-07T06:14:49;11.60;86.40
40538;DHT22;27925;41.874;12.526;2022-12-07T06:17:14;11.60;86.50
40538;DHT22;27925;41.874;12.526;2022-12-07T06:19:40;11.60;86.80
40538;DHT22;27925;41.874;12.526;2022-12-07T06:22:07;11.60;86.70
40538;DHT22;27925;41.874;12.526;2022-12-07T06:24:33;11.50;86.80
40538;DHT22;27925;41.874;12.526;2022-12-07T06:26:59;11.50;87.00
40538;DHT22;27925;41.874;12.526;2022-12-07T06:29:25;11.50;87.10
40538;DHT22;27925;41.874;12.526;2022-12-07T06:31:51;11.50;87.20
40538;DHT22;27925;41.874;12.526;2022-12-07T06:34:18;11.60;87.80
40538;DHT22;27925;41.874;12.526;2022-12-07T06:36:45;11.60;87.40
40538;DHT22;27925;41.874;12.526;2022-12-07T06:39:12;11.60;87.50
40538;DHT22;27925;41.874;12.526;2022-12-07T06:41:39;11.60;87.20
40538;DHT22;27925;41.874;12.526;2022-12-07T06:44:05;11.60;87.40
40538;DHT22;27925;41.874;12.526;2022-12-07T06:46:31;11.60;87.50
40538;DHT22;27925;41.874;12.526;2022-12-07T06:48:57;11.60;87.40
40538;DHT22;27925;41.874;12.526;2022-12-07T06:51:23;11.60;87.30
40538;DHT22;27925;41.874;12.526;2022-12-07T06:53:49;11.60;87.40
40538;DHT22;27925;41.874;12.526;2022-12-07T06:56:14;11.60;87.30
40538;DHT22;27925;41.874;12.526;2022-12-07T06:58:40;11.60;87.50
40538;DHT22;27925;41.874;12.526;2022-12-07T07:01:14;11.60;87.40
40538;DHT22;27925;41.874;12.526;2022-12-07T07:03:40;11.70;87.60
40538;DHT22;27925;41.874;12.526;2022-12-07T07:06:07;11.70;87.40
40538;DHT22;27925;41.874;12.526;2022-12-07T07:08:34;11.70;87.20
40538;DHT22;27925;41.874;12.526;2022-12-07T07:11:00;11.80;87.40
40538;DHT22;27925;41.874;12.526;2022-12-07T07:13:26;11.90;87.20
40538;DHT22;27925;41.874;12.526;2022-12-07T07:15:53;11.90;87.10
40538;DHT22;27925;41.874;12.526;2022-12-07T07:18:19;12.00;87.00
40538;DHT22;27925;41.874;12.526;2022-12-07T07:20:44;12.10;86.70
40538;DHT22;27925;41.874;12.526;2022-12-07T07:23:10;12.20;86.50
40538;DHT22;27925;41.874;12.526;2022-12-07T07:25:36;12.30;86.40
40538;DHT22;27925;41.874;12.526;2022-12-07T07:28:02;12.40;86.30
40538;DHT22;27925;41.874;12.526;2022-12-07T07:30:28;12.40;86.00
40538;DHT22;27925;41.874;12.526;2022-12-07T07:33:03;12.40;85.90
40538;DHT22;27925;41.874;12.526;2022-12-07T07:35:31;12.40;85.60
40538;DHT22;27925;41.874;12.526;2022-12-07T07:37:57;12.50;85.90
40538;DHT22;27925;41.874;12.526;2022-12-07T07:40:23;12.50;85.40
40538;DHT22;27925;41.874;12.526;2022-12-07T07:42:50;12.50;85.50
40538;DHT22;27925;41.874;12.526;2022-12-07T07:45:17;12.50;85.20
40538;DHT22;27925;41.874;12.526;2022-12-07T07:47:42;12.60;85.10
40538;DHT22;27925;41.874;12.526;2022-12-07T07:50:08;12.50;84.60
40538;DHT22;27925;41.874;12.526;2022-12-07T07:52:34;12.50;84.60
40538;DHT22;27925;41.874;12.526;2022-12-07T07:55:00;12.60;84.30
40538;DHT22;27925;41.874;12.526;2022-12-07T07:57:26;12.50;84.20
40538;DHT22;27925;41.874;12.526;2022-12-07T07:59:52;12.50;83.90
40538;DHT22;27925;41.874;12.526;2022-12-07T08:02:19;12.40;83.40
40538;DHT22;27925;41.874;12.526;2022-12-07T08:04:46;12.40;83.40
40538;DHT22;27925;41.874;12.526;2022-12-07T08:07:12;12.40;83.20
40538;DHT22;27925;41.874;12.526;2022-12-07T08:09:38;12.40;83.40
40538;DHT22;27925;41.874;12.526;2022-12-07T08:12:04;12.50;83.30
40538;DHT22;27925;41.874;12.526;2022-12-07T08:14:30;12.50;82.90
40538;DHT22;27925;41.874;12.526;2022-12-07T08:16:56;12.50;82.80
40538;DHT22;27925;41.874;12.526;2022-12-07T08:19:22;12.60;82.80
40538;DHT22;27925;41.874;12.526;2022-12-07T08:21:48;12.60;82.60
40538;DHT22;27925;41.874;12.526;2022-12-07T08:24:14;12.60;82.20
40538;DHT22;27925;41.874;12.526;2022-12-07T08:26:40;12.60;82.20
40538;DHT22;27925;41.874;12.526;2022-12-07T08:29:06;12.70;82.10
40538;DHT22;27925;41.874;12.526;2022-12-07T08:31:32;12.70;82.00
40538;DHT22;27925;41.874;12.526;2022-12-07T08:33:58;12.70;82.10
40538;DHT22;27925;41.874;12.526;2022-12-07T08:36:24;12.80;82.00
40538;DHT22;27925;41.874;12.526;2022-12-07T08:38:50;12.90;82.00
40538;DHT22;27925;41.874;12.526;2022-12-07T08:41:16;12.90;81.40
40538;DHT22;27925;41.874;12.526;2022-12-07T08:43:42;12.90;80.70
40538;DHT22;27925;41.874;12.526;2022-12-07T08:48:58;13.10;81.30
40538;DHT22;27925;41.874;12.526;2022-12-07T08:51:27;13.20;80.70
40538;DHT22;27925;41.874;12.526;2022-12-07T08:53:54;13.20;80.30
40538;DHT22;27925;41.874;12.526;2022-12-07T08:56:21;13.30;80.50
40538;DHT22;27925;41.874;12.526;2022-12-07T08:58:47;13.40;80.30
40538;DHT22;27925;41.874;12.526;2022-12-07T09:01:14;13.40;80.00
40538;DHT22;27925;41.874;12.526;2022-12-07T09:03:39;13.50;80.10
40538;DHT22;27925;41.874;12.526;2022-12-07T09:06:06;13.50;79.90
40538;DHT22;27925;41.874;12.526;2022-12-07T09:08:38;13.60;79.70
40538;DHT22;27925;41.874;12.526;2022-12-07T09:11:05;13.70;79.60
40538;DHT22;27925;41.874;12.526;2022-12-07T09:13:31;13.70;79.50
40538;DHT22;27925;41.874;12.526;2022-12-07T09:15:56;13.80;79.30
40538;DHT22;27925;41.874;12.526;2022-12-07T09:18:22;14.00;79.30
40538;DHT22;27925;41.874;12.526;2022-12-07T09:20:49;14.10;79.20
40538;DHT22;27925;41.874;12.526;2022-12-07T09:23:15;14.20;78.20
40538;DHT22;27925;41.874;12.526;2022-12-07T09:25:41;14.30;77.90
40538;DHT22;27925;41.874;12.526;2022-12-07T09:28:07;14.50;77.90
40538;DHT22;27925;41.874;12.526;2022-12-07T09:30:32;14.70;77.40
40538;DHT22;27925;41.874;12.526;2022-12-07T09:32:58;14.80;76.80
40538;DHT22;27925;41.874;12.526;2022-12-07T09:35:25;14.90;76.50
40538;DHT22;27925;41.874;12.526;2022-12-07T09:37:51;15.10;76.50
40538;DHT22;27925;41.874;12.526;2022-12-07T09:40:20;15.10;75.80
40538;DHT22;27925;41.874;12.526;2022-12-07T09:42:52;15.30;76.00
40538;DHT22;27925;41.874;12.526;2022-12-07T09:45:30;15.30;75.50
40538;DHT22;27925;41.874;12.526;2022-12-07T09:47:58;15.40;75.20
40538;DHT22;27925;41.874;12.526;2022-12-07T09:50:26;15.30;75.30
40538;DHT22;27925;41.874;12.526;2022-12-07T09:52:54;15.30;75.20
40538;DHT22;27925;41.874;12.526;2022-12-07T09:55:26;15.30;75.50
40538;DHT22;27925;41.874;12.526;2022-12-07T09:57:53;15.20;75.40
40538;DHT22;27925;41.874;12.526;2022-12-07T10:00:21;15.20;75.70
40538;DHT22;27925;41.874;12.526;2022-12-07T10:02:52;15.20;75.60
40538;DHT22;27925;41.874;12.526;2022-12-07T10:05:32;15.20;75.80
40538;DHT22;27925;41.874;12.526;2022-12-07T10:08:00;15.30;75.50
40538;DHT22;27925;41.874;12.526;2022-12-07T10:10:35;15.40;75.40
40538;DHT22;27925;41.874;12.526;2022-12-07T10:13:06;15.50;75.40
40538;DHT22;27925;41.874;12.526;2022-12-07T10:15:53;15.60;75.00
40538;DHT22;27925;41.874;12.526;2022-12-07T10:20:46;15.70;74.90
40538;DHT22;27925;41.874;12.526;2022-12-07T10:23:17;15.80;74.70
40538;DHT22;27925;41.874;12.526;2022-12-07T10:25:44;15.90;74.90
40538;DHT22;27925;41.874;12.526;2022-12-07T10:28:18;16.00;74.50
40538;DHT22;27925;41.874;12.526;2022-12-07T10:30:59;16.00;74.00
40538;DHT22;27925;41.874;12.526;2022-12-07T10:33:30;16.10;74.10
40538;DHT22;27925;41.874;12.526;2022-12-07T10:35:56;16.20;74.20
40538;DHT22;27925;41.874;12.526;2022-12-07T10:38:21;16.20;73.80
40538;DHT22;27925;41.874;12.526;2022-12-07T10:40:47;16.30;74.40
40538;DHT22;27925;41.874;12.526;2022-12-07T11:05:22;16.90;72.70
40538;DHT22;27925;41.874;12.526;2022-12-07T11:13:48;17.10;72.20
40538;DHT22;27925;41.874;12.526;2022-12-07T11:19:06;17.30;72.30
40538;DHT22;27925;41.874;12.526;2022-12-07T11:22:04;17.30;71.30
40538;DHT22;27925;41.874;12.526;2022-12-07T11:24:53;17.40;71.80
40538;DHT22;27925;41.874;12.526;2022-12-07T11:37:51;17.80;71.70
40538;DHT22;27925;41.874;12.526;2022-12-07T11:40:31;17.80;71.20
40538;DHT22;27925;41.874;12.526;2022-12-07T11:45:39;17.90;71.80
40538;DHT22;27925;41.874;12.526;2022-12-07T11:50:45;18.00;71.80
40538;DHT22;27925;41.874;12.526;2022-12-07T11:53:31;18.10;70.90
40538;DHT22;27925;41.874;12.526;2022-12-07T11:56:14;18.20;72.00
40538;DHT22;27925;41.874;12.526;2022-12-07T12:03:53;18.40;71.90
40538;DHT22;27925;41.874;12.526;2022-12-07T12:06:22;18.40;71.10
40538;DHT22;27925;41.874;12.526;2022-12-07T12:20:28;18.60;71.80
40538;DHT22;27925;41.874;12.526;2022-12-07T12:23:00;18.60;72.50
40538;DHT22;27925;41.874;12.526;2022-12-07T12:25:36;18.70;71.80
40538;DHT22;27925;41.874;12.526;2022-12-07T12:28:03;18.70;71.80
40538;DHT22;27925;41.874;12.526;2022-12-07T12:30:38;18.70;71.80
40538;DHT22;27925;41.874;12.526;2022-12-07T12:33:25;18.80;72.00
40538;DHT22;27925;41.874;12.526;2022-12-07T12:46:54;18.80;72.80
40538;DHT22;27925;41.874;12.526;2022-12-07T12:51:52;18.90;72.30
40538;DHT22;27925;41.874;12.526;2022-12-07T12:56:59;18.90;72.20
40538;DHT22;27925;41.874;12.526;2022-12-07T12:59:41;18.90;72.00
40538;DHT22;27925;41.874;12.526;2022-12-07T13:02:24;19.00;72.20
40538;DHT22;27925;41.874;12.526;2022-12-07T13:05:00;19.00;72.30
40538;DHT22;27925;41.874;12.526;2022-12-07T13:15:46;19.10;72.80
40538;DHT22;27925;41.874;12.526;2022-12-07T13:20:57;18.90;72.60
40538;DHT22;27925;41.874;12.526;2022-12-07T13:31:46;18.50;73.80
40538;DHT22;27925;41.874;12.526;2022-12-07T13:34:35;18.50;74.00
40538;DHT22;27925;41.874;12.526;2022-12-07T13:37:47;18.60;74.80
40538;DHT22;27925;41.874;12.526;2022-12-07T13:39:59;18.60;73.80
40538;DHT22;27925;41.874;12.526;2022-12-07T13:42:27;18.70;73.50
40538;DHT22;27925;41.874;12.526;2022-12-07T13:44:55;18.70;73.30
40538;DHT22;27925;41.874;12.526;2022-12-07T13:47:43;18.60;73.50
40538;DHT22;27925;41.874;12.526;2022-12-07T13:50:27;18.50;74.00
40538;DHT22;27925;41.874;12.526;2022-12-07T13:53:00;18.40;75.00
40538;DHT22;27925;41.874;12.526;2022-12-07T13:55:28;18.30;74.50
40538;DHT22;27925;41.874;12.526;2022-12-07T13:57:55;18.20;74.70
40538;DHT22;27925;41.874;12.526;2022-12-07T14:00:26;18.10;74.90
40538;DHT22;27925;41.874;12.526;2022-12-07T14:05:35;18.00;75.90
40538;DHT22;27925;41.874;12.526;2022-12-07T14:08:05;17.90;75.80
40538;DHT22;27925;41.874;12.526;2022-12-07T14:16:29;17.70;76.80
40538;DHT22;27925;41.874;12.526;2022-12-07T14:18:56;17.70;77.00
40538;DHT22;27925;41.874;12.526;2022-12-07T14:21:24;17.70;76.70
40538;DHT22;27925;41.874;12.526;2022-12-07T14:26:39;17.80;76.90
40538;DHT22;27925;41.874;12.526;2022-12-07T14:31:54;17.90;77.30
40538;DHT22;27925;41.874;12.526;2022-12-07T14:34:21;17.80;77.00
40538;DHT22;27925;41.874;12.526;2022-12-07T14:36:46;17.80;77.10
40538;DHT22;27925;41.874;12.526;2022-12-07T14:39:12;17.80;77.60
40538;DHT22;27925;41.874;12.526;2022-12-07T14:41:38;17.70;77.70
40538;DHT22;27925;41.874;12.526;2022-12-07T14:44:17;17.70;78.50
40538;DHT22;27925;41.874;12.526;2022-12-07T14:46:43;17.60;78.50
40538;DHT22;27925;41.874;12.526;2022-12-07T14:49:09;17.60;78.80
40538;DHT22;27925;41.874;12.526;2022-12-07T14:51:37;17.60;79.30
40538;DHT22;27925;41.874;12.526;2022-12-07T14:54:06;17.60;79.50
40538;DHT22;27925;41.874;12.526;2022-12-07T14:56:36;17.50;79.70
40538;DHT22;27925;41.874;12.526;2022-12-07T14:59:02;17.50;80.10
40538;DHT22;27925;41.874;12.526;2022-12-07T15:01:28;17.50;80.40
40538;DHT22;27925;41.874;12.526;2022-12-07T15:03:53;17.40;80.70
40538;DHT22;27925;41.874;12.526;2022-12-07T15:06:19;17.40;81.10
40538;DHT22;27925;41.874;12.526;2022-12-07T15:08:45;17.30;81.30
40538;DHT22;27925;41.874;12.526;2022-12-07T15:11:15;17.30;81.80
40538;DHT22;27925;41.874;12.526;2022-12-07T15:13:41;17.20;82.00
40538;DHT22;27925;41.874;12.526;2022-12-07T15:16:27;17.10;82.10
40538;DHT22;27925;41.874;12.526;2022-12-07T15:18:53;17.10;82.30
40538;DHT22;27925;41.874;12.526;2022-12-07T15:21:18;17.10;82.70
40538;DHT22;27925;41.874;12.526;2022-12-07T15:23:46;17.00;82.80
40538;DHT22;27925;41.874;12.526;2022-12-07T15:26:12;17.00;83.10
40538;DHT22;27925;41.874;12.526;2022-12-07T15:28:39;17.00;83.20
40538;DHT22;27925;41.874;12.526;2022-12-07T15:31:11;16.90;83.50
40538;DHT22;27925;41.874;12.526;2022-12-07T15:33:37;16.90;83.50
40538;DHT22;27925;41.874;12.526;2022-12-07T15:36:02;16.90;83.90
40538;DHT22;27925;41.874;12.526;2022-12-07T15:38:28;16.80;83.90
40538;DHT22;27925;41.874;12.526;2022-12-07T15:40:56;16.80;84.40
40538;DHT22;27925;41.874;12.526;2022-12-07T15:43:22;16.70;84.30
40538;DHT22;27925;41.874;12.526;2022-12-07T15:46:06;16.70;84.80
40538;DHT22;27925;41.874;12.526;2022-12-07T15:48:32;16.60;84.70
40538;DHT22;27925;41.874;12.526;2022-12-07T15:51:08;16.60;84.90
40538;DHT22;27925;41.874;12.526;2022-12-07T15:53:34;16.60;85.60
40538;DHT22;27925;41.874;12.526;2022-12-07T15:56:01;16.50;85.40
40538;DHT22;27925;41.874;12.526;2022-12-07T15:58:27;16.50;85.50
40538;DHT22;27925;41.874;12.526;2022-12-07T16:00:52;16.50;85.90
40538;DHT22;27925;41.874;12.526;2022-12-07T16:03:18;16.50;86.10
40538;DHT22;27925;41.874;12.526;2022-12-07T16:05:52;16.50;86.30
40538;DHT22;27925;41.874;12.526;2022-12-07T16:08:19;16.50;86.30
40538;DHT22;27925;41.874;12.526;2022-12-07T16:10:44;16.50;86.40
40538;DHT22;27925;41.874;12.526;2022-12-07T16:13:11;16.50;86.70
40538;DHT22;27925;41.874;12.526;2022-12-07T16:15:39;16.60;86.70
40538;DHT22;27925;41.874;12.526;2022-12-07T16:18:04;16.60;86.80
40538;DHT22;27925;41.874;12.526;2022-12-07T16:20:30;16.60;87.30
40538;DHT22;27925;41.874;12.526;2022-12-07T16:22:56;16.60;87.40
40538;DHT22;27925;41.874;12.526;2022-12-07T16:25:22;16.60;87.50
40538;DHT22;27925;41.874;12.526;2022-12-07T16:27:48;16.60;87.70
40538;DHT22;27925;41.874;12.526;2022-12-07T16:30:15;16.60;87.80
40538;DHT22;27925;41.874;12.526;2022-12-07T16:32:42;16.60;88.00
40538;DHT22;27925;41.874;12.526;2022-12-07T16:35:08;16.60;88.20
40538;DHT22;27925;41.874;12.526;2022-12-07T16:37:34;16.60;88.30
40538;DHT22;27925;41.874;12.526;2022-12-07T16:40:00;16.60;88.30
40538;DHT22;27925;41.874;12.526;2022-12-07T16:42:25;16.60;88.40
40538;DHT22;27925;41.874;12.526;2022-12-07T16:44:52;16.50;88.30
40538;DHT22;27925;41.874;12.526;2022-12-07T16:47:17;16.60;88.60
40538;DHT22;27925;41.874;12.526;2022-12-07T16:49:43;16.60;89.20
40538;DHT22;27925;41.874;12.526;2022-12-07T16:52:09;16.50;89.10
40538;DHT22;27925;41.874;12.526;2022-12-07T16:54:36;16.50;89.40
40538;DHT22;27925;41.874;12.526;2022-12-07T16:57:02;16.40;89.80
40538;DHT22;27925;41.874;12.526;2022-12-07T16:59:27;16.40;90.00
40538;DHT22;27925;41.874;12.526;2022-12-07T17:01:53;16.30;90.00
40538;DHT22;27925;41.874;12.526;2022-12-07T17:04:19;16.30;90.20
40538;DHT22;27925;41.874;12.526;2022-12-07T17:06:44;16.20;90.30
40538;DHT22;27925;41.874;12.526;2022-12-07T17:09:10;16.20;90.30
40538;DHT22;27925;41.874;12.526;2022-12-07T17:11:37;16.20;90.60
40538;DHT22;27925;41.874;12.526;2022-12-07T17:14:03;16.20;90.50
40538;DHT22;27925;41.874;12.526;2022-12-07T17:16:47;16.20;90.40
40538;DHT22;27925;41.874;12.526;2022-12-07T17:19:14;16.20;90.50
40538;DHT22;27925;41.874;12.526;2022-12-07T17:21:41;16.10;90.50
40538;DHT22;27925;41.874;12.526;2022-12-07T17:24:09;16.20;90.50
40538;DHT22;27925;41.874;12.526;2022-12-07T17:26:35;16.20;90.40
40538;DHT22;27925;41.874;12.526;2022-12-07T17:29:03;16.20;90.50
40538;DHT22;27925;41.874;12.526;2022-12-07T17:31:29;16.20;90.50
40538;DHT22;27925;41.874;12.526;2022-12-07T17:33:54;16.20;90.40
40538;DHT22;27925;41.874;12.526;2022-12-07T17:36:23;16.30;90.50
40538;DHT22;27925;41.874;12.526;2022-12-07T17:38:50;16.30;90.50
40538;DHT22;27925;41.874;12.526;2022-12-07T17:41:24;16.20;90.50
40538;DHT22;27925;41.874;12.526;2022-12-07T17:44:10;16.30;90.60
40538;DHT22;27925;41.874;12.526;2022-12-07T17:46:37;16.30;90.50
40538;DHT22;27925;41.874;12.526;2022-12-07T17:49:04;16.30;90.70
40538;DHT22;27925;41.874;12.526;2022-12-07T17:51:30;16.20;90.70